Time;durP1;ratioP1;P1;durP2;ratioP2;P2;SDS_P1;SDS_P2;PMS_P1;PMS_P2;Temp;Humidity;BMP_temperature;BMP_pressure;BME280_temperature;BME280_humidity;BME280_pressure;Samples;Min_cycle;Max_cycle;Signal;HPM_P1;HPM_P2
2022/10/03 00:01:53;;;;;;;14.10;2.65;;;10.10;99.90;;;;;;5054902;28;20049;-42
2022/10/03 00:04:37;;;;;;;16.00;2.70;;;10.00;99.90;;;;;;5049350;28;20472;-45
2022/10/03 00:07:07;;;;;;;14.88;2.33;;;10.00;99.90;;;;;;5042789;28;20057;-43
2022/10/03 00:09:43;;;;;;;16.23;2.78;;;10.00;99.90;;;;;;5052597;28;20500;-45
2022/10/03 00:12:14;;;;;;;15.75;2.72;;;10.00;99.90;;;;;;5054600;28;20040;-44
2022/10/03 00:14:44;;;;;;;14.33;2.37;;;9.90;99.90;;;;;;5053369;28;20099;-44
2022/10/03 00:17:14;;;;;;;11.80;1.92;;;9.90;99.90;;;;;;5045624;28;20555;-44
2022/10/03 00:19:46;;;;;;;11.63;2.35;;;9.90;99.90;;;;;;5044317;28;20459;-44
2022/10/03 00:22:17;;;;;;;17.17;2.80;;;9.90;99.90;;;;;;5050537;28;20221;-45
2022/10/03 00:24:56;;;;;;;;;;;9.90;99.90;;;;;;5049932;28;20668;-42
2022/10/03 00:27:28;;;;;;;14.93;2.15;;;9.80;99.90;;;;;;5034832;28;19979;-41
2022/10/03 00:30:02;;;;;;;10.25;1.92;;;9.80;99.90;;;;;;5049380;28;20570;-45
2022/10/03 00:32:42;;;;;;;12.38;2.13;;;9.80;99.90;;;;;;5047854;28;20060;-42
2022/10/03 00:35:21;;;;;;;14.27;2.35;;;9.80;99.90;;;;;;5049527;28;20147;-45
2022/10/03 00:37:58;;;;;;;12.27;2.50;;;9.80;99.90;;;;;;5052655;28;20134;-47
2022/10/03 00:40:46;;;;;;;8.00;1.80;;;9.80;99.90;;;;;;5049350;28;20102;-43
2022/10/03 00:43:54;;;;;;;9.48;2.10;;;9.70;99.90;;;;;;5039904;28;20075;-44
2022/10/03 00:47:05;;;;;;;21.58;3.00;;;9.70;99.90;;;;;;5047198;28;20056;-43
2022/10/03 00:49:42;;;;;;;9.18;2.00;;;9.70;99.90;;;;;;4990068;28;20498;-42
2022/10/03 00:52:19;;;;;;;14.27;2.70;;;9.70;99.90;;;;;;5040074;28;20142;-48
2022/10/03 00:54:53;;;;;;;13.45;2.72;;;9.60;99.90;;;;;;5051248;28;20088;-45
2022/10/03 00:57:36;;;;;;;11.13;2.00;;;9.60;99.90;;;;;;5042037;28;20057;-44
2022/10/03 01:00:16;;;;;;;11.23;2.90;;;9.60;99.90;;;;;;5040049;28;20049;-46
2022/10/03 01:03:23;;;;;;;15.70;2.92;;;9.50;99.90;;;;;;5051181;28;20048;-47
2022/10/03 01:05:59;;;;;;;10.65;2.05;;;9.50;99.90;;;;;;5005039;28;20040;-47
2022/10/03 01:08:51;;;;;;;9.07;2.30;;;9.50;99.90;;;;;;5042556;28;20114;-45
2022/10/03 01:11:26;;;;;;;14.73;2.50;;;9.50;99.90;;;;;;5050936;28;20056;-48
2022/10/03 01:14:01;;;;;;;14.38;2.40;;;9.40;99.90;;;;;;5041035;28;20457;-47
2022/10/03 01:16:36;;;;;;;11.23;2.17;;;9.40;99.90;;;;;;5050612;28;20053;-45
2022/10/03 01:19:07;;;;;;;11.52;2.25;;;9.40;99.90;;;;;;5049776;28;20053;-44
2022/10/03 01:21:39;;;;;;;17.00;2.90;;;9.40;99.90;;;;;;5039810;28;20049;-45
2022/10/03 01:24:26;;;;;;;8.63;2.00;;;9.40;99.90;;;;;;5053348;28;20045;-43
2022/10/03 01:26:55;;;;;;;17.05;2.50;;;9.40;99.90;;;;;;5040744;28;20041;-44
2022/10/03 01:32:12;;;;;;;11.73;3.00;;;9.30;99.90;;;;;;5055694;28;20056;-45
2022/10/03 01:34:42;;;;;;;15.35;1.95;;;9.30;99.90;;;;;;5049617;28;20132;-44
2022/10/03 01:37:10;;;;;;;11.73;2.08;;;9.30;99.90;;;;;;5045361;28;20098;-45
2022/10/03 01:39:41;;;;;;;8.00;1.95;;;9.30;99.90;;;;;;5061428;28;20122;-45
2022/10/03 01:42:10;;;;;;;12.40;2.00;;;9.30;99.90;;;;;;5063720;28;20077;-45
2022/10/03 01:44:44;;;;;;;8.10;1.88;;;9.20;99.90;;;;;;5048206;28;20119;-43
2022/10/03 01:47:18;;;;;;;7.05;2.13;;;9.30;99.90;;;;;;5051543;28;20409;-42
2022/10/03 01:49:47;;;;;;;14.18;2.50;;;9.20;99.90;;;;;;5052455;28;20051;-43
2022/10/03 01:52:18;;;;;;;13.15;2.20;;;9.20;99.90;;;;;;5058884;28;20139;-45
2022/10/03 01:54:49;;;;;;;10.40;2.28;;;9.20;99.90;;;;;;5048351;28;20589;-44
2022/10/03 01:57:20;;;;;;;9.98;1.90;;;9.20;99.90;;;;;;5052089;28;20048;-45
2022/10/03 01:59:51;;;;;;;15.43;2.42;;;9.10;99.90;;;;;;5050661;28;20056;-45
2022/10/03 02:02:30;;;;;;;13.40;1.85;;;9.10;99.90;;;;;;5054173;28;20052;-45
2022/10/03 02:05:03;;;;;;;16.73;2.78;;;9.10;99.90;;;;;;5047400;28;20157;-44
2022/10/03 02:07:34;;;;;;;10.00;2.03;;;9.10;99.90;;;;;;5049719;28;20049;-44
2022/10/03 02:10:06;;;;;;;13.20;1.80;;;9.10;99.90;;;;;;5050893;28;20048;-43
2022/10/03 02:12:35;;;;;;;17.33;2.85;;;9.10;99.90;;;;;;5048256;28;20404;-46
2022/10/03 02:15:13;;;;;;;13.48;2.30;;;9.00;99.90;;;;;;5045674;28;20102;-44
2022/10/03 02:17:46;;;;;;;8.15;1.77;;;9.10;99.90;;;;;;5050002;28;20486;-44
2022/10/03 02:20:22;;;;;;;8.15;1.75;;;9.00;99.90;;;;;;5045835;28;20044;-44
2022/10/03 02:22:50;;;;;;;8.75;1.80;;;9.10;99.90;;;;;;5052816;28;20443;-44
2022/10/03 02:25:31;;;;;;;8.75;1.95;;;9.00;99.90;;;;;;5055649;28;20049;-44
2022/10/03 02:28:42;;;;;;;10.30;2.08;;;9.00;99.90;;;;;;5055134;28;20586;-44
2022/10/03 02:31:31;;;;;;;8.60;1.38;;;9.00;99.90;;;;;;4989753;28;20051;-45
2022/10/03 02:34:07;;;;;;;8.07;1.90;;;9.00;99.90;;;;;;5042745;28;20075;-45
2022/10/03 02:36:59;;;;;;;10.88;1.95;;;9.00;99.90;;;;;;5054710;28;20148;-44
2022/10/03 02:39:39;;;;;;;8.05;1.75;;;9.00;99.90;;;;;;5045693;28;20077;-44
2022/10/03 02:42:31;;;;;;;10.07;1.85;;;8.90;99.90;;;;;;5054052;28;20081;-45
2022/10/03 02:45:26;;;;;;;12.35;2.42;;;9.00;99.90;;;;;;5047294;28;20061;-48
2022/10/03 02:48:21;;;;;;;13.48;2.17;;;9.00;99.90;;;;;;5051984;28;20505;-46
2022/10/03 02:51:26;;;;;;;15.82;2.40;;;9.00;99.90;;;;;;5043760;28;20064;-45
2022/10/03 02:54:30;;;;;;;15.55;2.55;;;9.10;99.90;;;;;;5045771;28;20111;-47
2022/10/03 02:57:21;;;;;;;15.38;2.65;;;9.10;99.90;;;;;;5023033;28;20081;-45
2022/10/03 03:00:14;;;;;;;14.50;2.35;;;9.20;99.90;;;;;;5050672;28;20045;-43
2022/10/03 03:03:08;;;;;;;11.32;2.35;;;9.20;99.90;;;;;;5051919;28;20077;-45
2022/10/03 03:06:05;;;;;;;12.18;2.03;;;9.20;99.90;;;;;;5053962;28;20396;-46
2022/10/03 03:09:08;;;;;;;12.27;2.05;;;9.30;99.90;;;;;;5010032;28;20088;-50
2022/10/03 03:12:09;;;;;;;13.85;2.50;;;9.20;99.90;;;;;;5053729;28;20052;-45
2022/10/03 03:14:51;;;;;;;7.72;1.73;;;9.30;99.90;;;;;;5050161;28;20075;-46
2022/10/03 03:17:24;;;;;;;8.65;1.80;;;9.30;99.90;;;;;;5054491;28;20052;-46
2022/10/03 03:20:26;;;;;;;9.93;2.05;;;9.40;99.90;;;;;;5039944;28;20088;-42
2022/10/03 03:23:10;;;;;;;10.18;2.00;;;9.30;99.90;;;;;;5032034;28;20110;-45
2022/10/03 03:25:51;;;;;;;8.70;1.90;;;9.30;99.90;;;;;;5052167;28;20122;-45
2022/10/03 03:28:27;;;;;;;9.80;1.90;;;9.30;99.90;;;;;;5059718;28;20492;-46
2022/10/03 03:31:02;;;;;;;9.45;1.80;;;9.30;99.90;;;;;;5052478;28;20044;-48
2022/10/03 03:33:34;;;;;;;9.05;2.35;;;9.30;99.90;;;;;;5050883;28;20469;-44
2022/10/03 03:36:03;;;;;;;10.55;2.13;;;9.20;99.90;;;;;;5068722;28;20134;-47
2022/10/03 03:38:34;;;;;;;9.25;2.05;;;9.20;99.90;;;;;;5052567;28;20397;-44
2022/10/03 03:41:21;;;;;;;15.52;2.00;;;9.20;99.90;;;;;;5039399;28;20587;-45
2022/10/03 03:44:05;;;;;;;14.20;2.35;;;9.20;99.90;;;;;;5052355;28;20499;-48
2022/10/03 03:46:39;;;;;;;6.53;1.45;;;9.20;99.90;;;;;;5057590;28;20116;-45
2022/10/03 03:49:17;;;;;;;12.45;2.08;;;9.10;99.90;;;;;;5064893;28;20048;-49
2022/10/03 03:51:51;;;;;;;12.60;2.55;;;9.10;99.90;;;;;;5058528;28;20473;-46
2022/10/03 03:54:56;;;;;;;7.57;1.42;;;9.10;99.90;;;;;;5055455;28;20052;-46
2022/10/03 03:57:41;;;;;;;8.48;1.67;;;9.10;99.90;;;;;;5042695;28;20106;-47
2022/10/03 04:00:13;;;;;;;9.70;2.05;;;9.10;99.90;;;;;;5048210;28;20135;-46
2022/10/03 04:02:51;;;;;;;16.63;2.75;;;9.00;99.90;;;;;;5049695;28;20103;-42
2022/10/03 04:05:25;;;;;;;8.73;2.00;;;9.00;99.90;;;;;;5062256;28;20037;-45
2022/10/03 04:08:10;;;;;;;9.00;1.63;;;9.00;99.90;;;;;;5052730;28;20467;-47
2022/10/03 04:10:45;;;;;;;8.40;1.50;;;8.90;99.90;;;;;;5052559;28;20041;-49
2022/10/03 04:13:27;;;;;;;6.45;1.60;;;8.90;99.90;;;;;;5055556;28;20467;-48
2022/10/03 04:16:00;;;;;;;5.15;1.33;;;9.00;99.90;;;;;;5043735;28;20061;-48
2022/10/03 04:19:02;;;;;;;6.80;2.08;;;8.90;99.90;;;;;;5051186;28;20085;-49
2022/10/03 04:21:39;;;;;;;11.30;1.88;;;8.80;99.90;;;;;;5031757;28;20516;-48
2022/10/03 04:24:22;;;;;;;14.07;2.58;;;8.80;99.90;;;;;;5046951;28;20057;-48
2022/10/03 04:27:00;;;;;;;11.48;2.20;;;8.80;99.90;;;;;;5052779;28;20072;-48
2022/10/03 04:29:43;;;;;;;15.23;2.50;;;8.80;99.90;;;;;;5045834;28;20053;-49
2022/10/03 04:32:28;;;;;;;9.88;3.22;;;8.80;99.90;;;;;;5044897;28;20094;-47
2022/10/03 04:35:04;;;;;;;10.18;2.25;;;8.80;99.90;;;;;;5051600;28;20045;-49
2022/10/03 04:37:34;;;;;;;3.15;1.20;;;8.80;99.90;;;;;;5047953;28;20045;-45
2022/10/03 04:40:22;;;;;;;8.88;1.80;;;8.80;99.90;;;;;;5052847;28;20496;-45
2022/10/03 04:42:57;;;;;;;9.52;1.63;;;8.80;99.90;;;;;;5049557;28;20073;-47
2022/10/03 04:45:39;;;;;;;8.35;1.50;;;8.70;99.90;;;;;;5049440;28;20103;-49
2022/10/03 04:48:08;;;;;;;;;;;8.70;99.90;;;;;;5048938;28;20041;-46
2022/10/03 04:50:39;;;;;;;8.73;1.90;;;8.70;99.90;;;;;;5048117;28;19920;-45
2022/10/03 04:53:16;;;;;;;6.45;1.52;;;8.70;99.90;;;;;;5047096;28;20498;-46
2022/10/03 04:55:45;;;;;;;6.57;1.35;;;8.70;99.90;;;;;;5060618;28;20052;-46
2022/10/03 04:58:22;;;;;;;6.80;1.63;;;8.60;99.90;;;;;;5050831;28;20084;-44
2022/10/03 05:00:53;;;;;;;9.68;1.75;;;8.60;99.90;;;;;;5056587;28;20448;-47
2022/10/03 05:03:25;;;;;;;6.28;2.13;;;8.60;99.90;;;;;;5048185;28;20123;-46
2022/10/03 05:05:54;;;;;;;8.07;2.10;;;8.60;99.90;;;;;;5046418;28;20175;-48
2022/10/03 05:08:31;;;;;;;7.03;2.20;;;8.60;99.90;;;;;;5052942;28;20082;-49
2022/10/03 05:11:04;;;;;;;10.13;2.42;;;8.60;99.90;;;;;;5060356;28;20080;-47
2022/10/03 05:13:39;;;;;;;5.82;2.35;;;8.50;99.90;;;;;;5055107;28;20119;-48
2022/10/03 05:16:09;;;;;;;7.85;2.13;;;8.50;99.90;;;;;;5053456;28;20127;-43
2022/10/03 05:18:40;;;;;;;6.73;1.63;;;8.50;99.90;;;;;;5043663;28;20508;-49
2022/10/03 05:21:11;;;;;;;5.03;1.83;;;8.50;99.90;;;;;;5061271;28;20048;-45
2022/10/03 05:23:45;;;;;;;6.43;1.60;;;8.50;99.90;;;;;;5068162;28;20054;-46
2022/10/03 05:26:18;;;;;;;5.50;1.70;;;8.50;99.90;;;;;;5056207;28;20052;-48
2022/10/03 05:28:50;;;;;;;6.80;2.00;;;8.40;99.90;;;;;;5054618;28;20053;-48
2022/10/03 05:31:26;;;;;;;11.18;5.57;;;8.40;99.90;;;;;;5061278;28;20059;-48
2022/10/03 05:33:59;;;;;;;10.90;3.30;;;8.40;99.90;;;;;;5055118;28;20052;-46
2022/10/03 05:36:31;;;;;;;7.05;2.42;;;8.40;99.90;;;;;;5054754;28;20051;-49
2022/10/03 05:39:33;;;;;;;6.95;2.50;;;8.30;99.90;;;;;;5061021;28;20452;-43
2022/10/03 05:42:27;;;;;;;7.57;2.72;;;8.30;99.90;;;;;;5046214;28;20061;-47
2022/10/03 05:45:00;;;;;;;8.13;2.58;;;8.30;99.90;;;;;;5044401;28;20060;-48
2022/10/03 05:47:48;;;;;;;5.18;2.17;;;8.30;99.90;;;;;;5051715;28;20131;-47
2022/10/03 05:50:47;;;;;;;11.52;1.80;;;8.30;99.90;;;;;;5052656;28;20058;-46
2022/10/03 05:53:38;;;;;;;7.00;2.22;;;8.30;99.90;;;;;;5049027;28;20103;-49
2022/10/03 05:56:08;;;;;;;9.80;2.03;;;8.30;99.90;;;;;;5035203;28;20076;-46
2022/10/03 05:58:57;;;;;;;10.60;1.77;;;8.30;99.90;;;;;;5048358;28;20102;-45
2022/10/03 06:01:56;;;;;;;6.53;1.90;;;8.30;99.90;;;;;;5048480;28;20103;-48
2022/10/03 06:04:49;;;;;;;9.88;1.80;;;8.30;99.90;;;;;;5064314;28;20485;-45
2022/10/03 06:07:21;;;;;;;6.70;1.98;;;8.30;99.90;;;;;;5062171;28;20051;-46
2022/10/03 06:10:19;;;;;;;13.98;2.25;;;8.30;99.90;;;;;;5071548;28;20377;-46
2022/10/03 06:12:48;;;;;;;11.50;2.42;;;8.30;99.90;;;;;;5050545;28;20118;-45
2022/10/03 06:15:26;;;;;;;8.55;2.33;;;8.30;99.90;;;;;;5058718;28;20131;-49
2022/10/03 06:18:02;;;;;;;15.43;3.05;;;8.30;99.90;;;;;;5070205;28;20140;-46
2022/10/03 06:20:50;;;;;;;7.57;1.95;;;8.40;99.90;;;;;;5071366;28;20044;-47
2022/10/03 06:23:38;;;;;;;11.15;2.35;;;8.40;99.90;;;;;;5069420;28;20048;-47
2022/10/03 06:26:23;;;;;;;11.15;3.38;;;8.50;99.90;;;;;;5069684;28;20048;-46
2022/10/03 06:29:02;;;;;;;11.10;2.22;;;8.50;99.90;;;;;;5059400;28;20053;-39
2022/10/03 06:31:50;;;;;;;18.83;3.63;;;8.50;99.90;;;;;;5045448;28;20059;-46
2022/10/03 06:35:01;;;;;;;14.02;3.70;;;8.60;99.90;;;;;;5063780;28;20052;-46
2022/10/03 06:38:05;;;;;;;17.48;4.65;;;8.60;99.90;;;;;;5057037;28;20493;-46
2022/10/03 06:41:13;;;;;;;19.00;4.10;;;8.60;99.90;;;;;;5049745;28;20041;-45
2022/10/03 06:43:55;;;;;;;11.15;3.10;;;8.70;99.90;;;;;;5014506;28;20370;-46
2022/10/03 06:46:44;;;;;;;13.95;3.38;;;8.80;99.90;;;;;;5047827;28;20041;-42
2022/10/03 06:49:50;;;;;;;12.45;2.75;;;8.80;99.90;;;;;;5042632;28;20056;-47
2022/10/03 06:52:46;;;;;;;10.63;2.75;;;8.80;99.90;;;;;;5048864;28;20056;-47
2022/10/03 06:55:23;;;;;;;10.10;2.95;;;8.90;99.90;;;;;;5033516;28;20053;-46
2022/10/03 06:58:15;;;;;;;16.00;2.72;;;9.00;99.90;;;;;;5043443;28;20114;-45
2022/10/03 07:00:53;;;;;;;11.93;3.10;;;9.00;99.90;;;;;;5046924;28;20110;-48
2022/10/03 07:04:15;;;;;;;12.40;3.22;;;9.10;99.90;;;;;;5044852;28;20102;-43
2022/10/03 07:06:56;;;;;;;19.97;4.17;;;9.30;99.90;;;;;;5058267;28;20114;-42
2022/10/03 07:10:03;;;;;;;15.93;3.23;;;9.40;99.90;;;;;;5058854;28;20329;-41
2022/10/03 07:13:09;;;;;;;12.55;3.17;;;9.60;99.90;;;;;;5046740;28;20902;-47
2022/10/03 07:16:08;;;;;;;15.05;3.25;;;9.70;99.90;;;;;;5043759;28;20095;-47
2022/10/03 07:19:00;;;;;;;17.60;3.00;;;9.90;99.90;;;;;;5039873;28;20519;-41
2022/10/03 07:21:54;;;;;;;11.35;2.90;;;10.00;99.90;;;;;;5051799;28;20036;-45
2022/10/03 07:24:40;;;;;;;14.82;2.80;;;10.20;99.90;;;;;;5050251;28;20080;-45
2022/10/03 07:27:23;;;;;;;15.52;2.95;;;10.40;99.90;;;;;;5056397;28;20131;-49
2022/10/03 07:30:07;;;;;;;18.83;3.25;;;10.50;99.90;;;;;;5054062;28;20314;-44
2022/10/03 07:33:18;;;;;;;11.55;2.83;;;10.60;99.90;;;;;;5057999;28;20132;-45
2022/10/03 07:39:01;;;;;;;14.05;2.60;;;11.00;99.90;;;;;;5059956;28;20037;-38
2022/10/03 07:41:38;;;;;;;26.17;3.20;;;11.10;99.90;;;;;;5038940;28;20105;-44
2022/10/03 07:44:14;;;;;;;14.57;2.72;;;11.30;99.90;;;;;;5066487;28;20084;-46
2022/10/03 07:47:20;;;;;;;11.25;2.33;;;11.40;99.90;;;;;;5058642;28;20396;-45
2022/10/03 07:50:04;;;;;;;19.73;3.20;;;11.60;99.90;;;;;;5053124;28;20044;-41
2022/10/03 07:52:59;;;;;;;11.82;2.22;;;11.70;99.90;;;;;;5055558;28;20040;-47
2022/10/03 07:55:30;;;;;;;13.80;3.20;;;11.90;99.90;;;;;;5059119;28;20056;-44
2022/10/03 07:58:25;;;;;;;13.60;2.75;;;12.00;99.90;;;;;;5053800;28;20092;-45
2022/10/03 08:01:18;;;;;;;17.55;2.58;;;12.30;99.90;;;;;;5039043;28;21654;-43
2022/10/03 08:03:56;;;;;;;12.45;2.30;;;12.40;99.90;;;;;;5058316;28;20124;-44
2022/10/03 08:06:25;;;;;;;13.43;2.10;;;12.60;99.90;;;;;;5049973;28;20132;-41
2022/10/03 08:09:11;;;;;;;12.82;2.17;;;12.70;99.90;;;;;;5058347;28;20040;-45
2022/10/03 08:12:12;;;;;;;16.35;2.47;;;12.90;99.90;;;;;;5062459;28;20044;-44
2022/10/03 08:14:45;;;;;;;13.88;2.42;;;13.00;99.90;;;;;;5041533;28;20072;-46
2022/10/03 08:17:34;;;;;;;13.90;2.58;;;13.20;99.90;;;;;;5058718;28;20098;-42
2022/10/03 08:20:22;;;;;;;14.30;2.45;;;13.30;99.90;;;;;;5024722;28;20076;-42
2022/10/03 08:22:56;;;;;;;8.93;1.80;;;13.50;99.90;;;;;;5071922;28;20052;-45
2022/10/03 08:25:27;;;;;;;12.40;2.00;;;13.70;99.90;;;;;;5053503;28;20076;-45
2022/10/03 08:28:17;;;;;;;9.95;1.92;;;13.80;99.90;;;;;;5053956;28;20104;-46
2022/10/03 08:30:55;;;;;;;13.73;2.25;;;13.90;99.90;;;;;;5049566;28;20136;-41
2022/10/03 08:33:48;;;;;;;11.30;1.95;;;14.10;99.90;;;;;;5049072;28;20071;-47
2022/10/03 08:37:06;;;;;;;12.93;2.13;;;14.20;99.90;;;;;;5051393;28;20076;-43
2022/10/03 08:39:41;;;;;;;11.70;2.05;;;14.30;99.90;;;;;;4970312;28;20210;-45
2022/10/03 08:42:26;;;;;;;13.23;1.75;;;14.50;99.90;;;;;;5054439;28;20044;-45
2022/10/03 08:45:14;;;;;;;14.45;2.67;;;14.60;99.90;;;;;;5040274;28;20114;-42
2022/10/03 08:48:13;;;;;;;11.50;1.95;;;14.80;99.90;;;;;;5049702;28;20060;-43
2022/10/03 08:50:57;;;;;;;14.75;1.70;;;15.00;99.90;;;;;;5041609;28;20049;-45
2022/10/03 08:54:01;;;;;;;10.98;1.65;;;15.10;99.90;;;;;;5050470;28;20057;-44
2022/10/03 08:56:48;;;;;;;9.43;1.75;;;15.20;99.90;;;;;;5035853;28;20057;-43
2022/10/03 08:59:35;;;;;;;15.80;1.90;;;15.40;99.90;;;;;;5049088;28;20041;-44
2022/10/03 09:02:32;;;;;;;11.20;1.60;;;15.50;99.90;;;;;;5048005;28;20060;-43
2022/10/03 09:05:14;;;;;;;10.20;1.52;;;15.60;99.90;;;;;;5048734;28;20094;-43
2022/10/03 09:08:25;;;;;;;8.85;1.55;;;15.70;99.90;;;;;;5065601;28;20131;-39
2022/10/03 09:11:35;;;;;;;12.10;2.10;;;15.80;99.90;;;;;;5051598;28;20145;-43
2022/10/03 09:14:41;;;;;;;10.93;1.85;;;15.90;99.90;;;;;;5039024;28;20044;-44
2022/10/03 09:17:48;;;;;;;13.32;1.70;;;16.00;99.90;;;;;;5049972;28;20049;-44
2022/10/03 09:20:28;;;;;;;14.05;2.03;;;16.20;99.90;;;;;;5046012;28;20084;-38
2022/10/03 09:23:06;;;;;;;13.70;2.30;;;16.30;99.90;;;;;;5067970;28;20041;-43
2022/10/03 09:25:44;;;;;;;13.90;2.10;;;16.30;99.90;;;;;;5051890;28;20067;-42
2022/10/03 09:28:46;;;;;;;13.95;2.33;;;16.40;99.90;;;;;;5051971;28;20073;-44
2022/10/03 09:31:26;;;;;;;9.25;1.42;;;16.50;99.90;;;;;;5052546;28;20051;-42
2022/10/03 09:34:13;;;;;;;14.82;1.88;;;16.60;99.90;;;;;;5045068;28;20122;-43
2022/10/03 09:37:09;;;;;;;10.38;1.70;;;16.70;99.90;;;;;;5053023;28;20139;-43
2022/10/03 09:40:13;;;;;;;15.30;1.80;;;16.80;99.90;;;;;;5051857;28;20501;-42
2022/10/03 09:43:25;;;;;;;12.18;2.25;;;16.90;99.90;;;;;;5051523;28;20053;-44
2022/10/03 09:46:18;;;;;;;11.77;1.80;;;17.00;99.90;;;;;;5039970;28;20445;-43
2022/10/03 09:49:05;;;;;;;11.50;1.80;;;17.00;99.90;;;;;;5047712;28;20089;-43
2022/10/03 09:51:35;;;;;;;15.18;2.15;;;17.20;99.90;;;;;;5051702;28;20099;-42
2022/10/03 09:54:36;;;;;;;12.40;1.80;;;17.30;99.90;;;;;;5052436;28;20045;-43
2022/10/03 09:57:25;;;;;;;14.40;2.00;;;17.40;99.90;;;;;;5052084;28;20083;-43
2022/10/03 10:00:04;;;;;;;12.45;1.63;;;17.50;99.90;;;;;;5051555;28;20450;-42
2022/10/03 10:02:45;;;;;;;10.85;1.92;;;17.50;99.90;;;;;;5052442;28;20102;-44
2022/10/03 10:05:35;;;;;;;11.63;1.58;;;17.50;99.90;;;;;;5052768;28;20132;-45
2022/10/03 10:08:18;;;;;;;11.68;1.83;;;17.50;99.90;;;;;;5029552;28;20532;-43
2022/10/03 10:11:09;;;;;;;10.10;1.77;;;17.50;99.90;;;;;;5066358;28;20076;-41
2022/10/03 10:14:14;;;;;;;7.20;1.75;;;17.50;99.90;;;;;;5050869;28;20123;-44
2022/10/03 10:17:04;;;;;;;11.25;1.92;;;17.50;99.90;;;;;;5050759;28;20128;-44
2022/10/03 10:19:39;;;;;;;9.20;1.80;;;17.60;99.90;;;;;;5043809;28;20091;-43
2022/10/03 10:22:41;;;;;;;12.40;1.35;;;17.60;99.90;;;;;;5052760;28;20049;-44
2022/10/03 10:25:30;;;;;;;;;;;17.60;99.90;;;;;;5052859;28;20041;-46
2022/10/03 10:28:39;;;;;;;9.30;1.48;;;17.60;99.90;;;;;;5051500;28;19971;-43
2022/10/03 10:31:40;;;;;;;6.70;1.48;;;17.80;99.90;;;;;;5052514;28;20049;-43
2022/10/03 10:34:47;;;;;;;9.38;1.50;;;17.80;99.90;;;;;;5025112;28;20118;-35
2022/10/03 10:37:53;;;;;;;7.50;1.20;;;17.80;99.90;;;;;;5031841;28;20091;-44
2022/10/03 10:40:45;;;;;;;10.40;1.58;;;17.90;99.90;;;;;;5031055;28;20049;-44
2022/10/03 10:43:51;;;;;;;7.15;1.50;;;17.90;99.90;;;;;;5031760;28;20045;-44
2022/10/03 10:46:33;;;;;;;6.40;1.50;;;17.90;99.90;;;;;;5040642;28;20049;-42
2022/10/03 10:49:10;;;;;;;;;;;18.00;99.90;;;;;;5054827;28;20076;-44
2022/10/03 10:52:03;;;;;;;6.15;1.45;;;17.90;99.90;;;;;;5054049;28;19916;-43
2022/10/03 10:55:06;;;;;;;8.20;1.50;;;17.90;99.90;;;;;;5054265;28;20126;-46
2022/10/03 10:58:18;;;;;;;14.02;1.55;;;18.00;99.90;;;;;;5030268;28;20041;-43
2022/10/03 11:01:15;;;;;;;5.93;1.50;;;18.10;99.90;;;;;;5031468;28;20084;-42
2022/10/03 11:04:18;;;;;;;11.95;1.45;;;18.10;99.90;;;;;;5030032;28;20642;-43
2022/10/03 11:07:00;;;;;;;8.52;1.65;;;18.20;99.90;;;;;;5020817;28;20114;-46
2022/10/03 11:09:51;;;;;;;7.68;1.38;;;18.30;99.90;;;;;;5051887;28;20089;-41
2022/10/03 11:12:48;;;;;;;9.52;1.75;;;18.50;99.90;;;;;;5054189;28;20105;-43
2022/10/03 11:15:49;;;;;;;9.07;1.40;;;18.50;99.90;;;;;;5060429;28;20049;-45
2022/10/03 11:19:02;;;;;;;8.70;1.42;;;18.50;99.50;;;;;;5065519;28;20044;-47
2022/10/03 11:22:03;;;;;;;6.78;1.45;;;18.50;99.40;;;;;;5054245;28;20076;-44
2022/10/03 11:24:59;;;;;;;11.43;2.72;;;18.40;99.50;;;;;;5055035;28;20089;-44
2022/10/03 11:27:57;;;;;;;10.02;1.48;;;18.40;99.60;;;;;;5054191;28;20053;-47
2022/10/03 11:30:46;;;;;;;5.30;1.20;;;18.60;99.90;;;;;;5055169;28;20091;-45
2022/10/03 11:34:03;;;;;;;8.68;1.33;;;18.80;99.70;;;;;;5055596;28;20099;-46
2022/10/03 11:36:59;;;;;;;8.32;1.45;;;18.90;98.70;;;;;;5028654;28;20106;-43
2022/10/03 11:39:28;;;;;;;7.90;1.23;;;18.90;98.90;;;;;;5048158;28;20106;-42
2022/10/03 11:41:58;;;;;;;9.70;1.70;;;18.90;99.00;;;;;;5053663;28;20045;-48
2022/10/03 11:44:26;;;;;;;6.78;1.48;;;18.90;98.80;;;;;;5054370;28;20094;-46
2022/10/03 11:47:12;;;;;;;6.45;1.25;;;18.90;99.10;;;;;;5054986;28;20080;-45
2022/10/03 11:50:09;;;;;;;9.93;1.77;;;18.90;98.70;;;;;;5053786;28;20087;-47
2022/10/03 11:52:41;;;;;;;13.40;1.80;;;19.00;99.00;;;;;;5019928;28;20076;-45
2022/10/03 11:55:20;;;;;;;8.55;1.65;;;19.00;99.00;;;;;;5069843;28;20474;-44
2022/10/03 11:57:51;;;;;;;10.25;1.42;;;19.00;98.80;;;;;;5054784;28;20045;-45
2022/10/03 12:00:19;;;;;;;6.85;1.40;;;19.00;98.80;;;;;;5052947;28;20354;-46
2022/10/03 12:03:09;;;;;;;10.80;1.70;;;19.00;98.90;;;;;;5052787;28;20425;-47
2022/10/03 12:05:44;;;;;;;9.98;1.55;;;19.00;98.90;;;;;;5054480;28;20049;-43
2022/10/03 12:11:08;;;;;;;9.43;1.40;;;19.00;98.40;;;;;;5050987;28;20083;-46
2022/10/03 12:13:38;;;;;;;8.43;1.83;;;19.10;98.60;;;;;;5053298;28;20047;-45
2022/10/03 12:16:06;;;;;;;4.72;1.27;;;19.00;98.20;;;;;;5052897;28;20131;-45
2022/10/03 12:18:51;;;;;;;8.50;1.33;;;18.90;98.30;;;;;;5053389;28;20049;-47
2022/10/03 12:21:19;;;;;;;7.50;1.70;;;18.90;98.40;;;;;;5053207;28;20083;-48
2022/10/03 12:23:56;;;;;;;8.10;1.42;;;18.90;98.60;;;;;;5053705;28;20091;-48
2022/10/03 12:26:28;;;;;;;7.10;1.30;;;18.80;98.50;;;;;;5053131;28;20094;-44
2022/10/03 12:28:55;;;;;;;7.65;1.50;;;18.80;98.80;;;;;;5054169;28;20137;-44
2022/10/03 12:31:25;;;;;;;8.95;2.00;;;18.80;98.50;;;;;;5052967;28;20048;-44
2022/10/03 12:33:54;;;;;;;10.02;1.92;;;18.80;98.50;;;;;;5052934;28;20135;-45
2022/10/03 12:36:25;;;;;;;8.55;1.50;;;18.90;98.10;;;;;;5052773;28;20131;-47
2022/10/03 12:39:15;;;;;;;6.05;1.45;;;18.90;98.10;;;;;;5053459;28;20041;-43
2022/10/03 12:42:00;;;;;;;11.35;1.77;;;19.10;98.40;;;;;;5050203;28;20103;-46
2022/10/03 12:44:33;;;;;;;5.43;1.30;;;19.20;98.30;;;;;;5052703;28;20088;-45
2022/10/03 12:47:04;;;;;;;6.03;1.30;;;19.20;98.00;;;;;;5053756;28;20126;-44
2022/10/03 12:49:38;;;;;;;7.25;1.42;;;19.30;98.00;;;;;;5053951;28;20099;-44
2022/10/03 12:52:07;;;;;;;7.97;1.40;;;19.30;97.60;;;;;;5052825;28;20084;-45
2022/10/03 12:54:42;;;;;;;7.63;1.25;;;19.30;97.70;;;;;;5052173;28;20075;-45
2022/10/03 12:58:00;;;;;;;10.98;2.40;;;19.30;97.40;;;;;;5052043;28;20053;-47
2022/10/03 13:00:27;;;;;;;8.90;1.30;;;19.30;97.40;;;;;;5042537;28;20107;-47
2022/10/03 13:03:03;;;;;;;7.10;1.85;;;19.20;97.30;;;;;;5050846;28;20037;-45
2022/10/03 13:05:36;;;;;;;8.48;1.80;;;19.10;97.00;;;;;;5053552;28;20455;-44
2022/10/03 13:08:05;;;;;;;10.77;1.60;;;19.10;97.30;;;;;;5052727;28;20045;-45
2022/10/03 13:10:36;;;;;;;8.68;1.75;;;19.00;97.40;;;;;;5052446;28;20045;-44
2022/10/03 13:13:12;;;;;;;7.27;1.97;;;19.10;97.30;;;;;;5053554;28;20526;-49
2022/10/03 13:15:53;;;;;;;8.93;1.90;;;19.10;98.00;;;;;;5038351;28;20112;-49
2022/10/03 13:18:41;;;;;;;10.35;1.40;;;19.10;97.50;;;;;;5052325;28;20757;-47
2022/10/03 13:21:14;;;;;;;6.18;1.58;;;19.10;97.70;;;;;;5049320;28;20115;-44
2022/10/03 13:23:46;;;;;;;10.30;1.52;;;19.10;97.50;;;;;;5050342;28;20048;-47
2022/10/03 13:26:15;;;;;;;;;;;19.10;97.30;;;;;;5067995;28;20050;-47
2022/10/03 13:28:58;;;;;;;6.72;1.38;;;19.10;98.40;;;;;;5064342;28;19916;-46
2022/10/03 13:31:25;;;;;;;9.30;1.55;;;19.20;98.20;;;;;;5052363;28;20387;-45
2022/10/03 13:33:54;;;;;;;7.20;1.45;;;19.20;97.70;;;;;;5052078;28;20041;-46
2022/10/03 13:36:24;;;;;;;6.15;1.20;;;19.20;97.70;;;;;;5051932;28;20126;-46
2022/10/03 13:38:59;;;;;;;7.20;1.50;;;19.20;97.30;;;;;;5052759;28;20056;-47
2022/10/03 13:41:32;;;;;;;10.50;1.67;;;19.20;97.90;;;;;;5050282;28;20111;-47
2022/10/03 13:44:00;;;;;;;6.57;1.10;;;19.20;97.70;;;;;;5051597;28;20076;-44
2022/10/03 13:46:31;;;;;;;6.40;1.25;;;19.20;97.40;;;;;;5052823;28;20095;-44
2022/10/03 13:48:59;;;;;;;8.02;1.30;;;19.30;97.60;;;;;;5067716;28;20048;-44
2022/10/03 13:51:33;;;;;;;6.20;1.60;;;19.30;97.70;;;;;;5071341;28;20139;-45
2022/10/03 13:54:02;;;;;;;8.13;1.50;;;19.30;97.50;;;;;;5072843;28;20044;-44
2022/10/03 13:56:40;;;;;;;3.78;1.10;;;19.30;97.80;;;;;;5071820;28;20052;-45
2022/10/03 13:59:13;;;;;;;10.15;1.50;;;19.30;98.10;;;;;;5072488;28;20531;-45
2022/10/03 14:01:45;;;;;;;16.27;1.60;;;19.40;97.80;;;;;;5051980;28;20071;-45
2022/10/03 14:04:32;;;;;;;18.55;2.47;;;19.40;97.70;;;;;;5052845;28;20396;-46
2022/10/03 14:07:02;;;;;;;8.30;1.58;;;19.40;97.70;;;;;;5032717;28;20041;-44
2022/10/03 14:09:38;;;;;;;6.90;1.40;;;19.40;97.50;;;;;;5034970;28;20148;-44
2022/10/03 14:12:10;;;;;;;5.95;1.17;;;19.50;97.50;;;;;;5046913;28;20053;-44
2022/10/03 14:14:48;;;;;;;10.45;1.70;;;19.50;97.10;;;;;;5047547;28;20370;-47
2022/10/03 14:17:16;;;;;;;8.75;1.80;;;19.50;97.00;;;;;;5050782;28;20052;-46
2022/10/03 14:19:54;;;;;;;8.93;1.60;;;19.50;97.00;;;;;;5060008;28;20140;-45